createdAt,value
2023-04-04T00:00:32.531Z,0.00
2023-04-04T00:01:32.538Z,0.00
2023-04-04T00:02:32.606Z,0.00
2023-04-04T00:03:32.591Z,0.00
2023-04-04T00:04:32.600Z,0.00
2023-04-04T00:05:32.514Z,0.00
2023-04-04T00:06:32.503Z,0.00
2023-04-04T00:07:32.512Z,0.00
2023-04-04T00:08:32.509Z,0.00
2023-04-04T00:09:32.485Z,0.00
2023-04-04T00:10:32.507Z,0.00
2023-04-04T00:11:32.510Z,0.00
2023-04-04T00:12:32.519Z,0.00
2023-04-04T00:13:32.471Z,0.00
2023-04-04T00:14:32.468Z,0.00
2023-04-04T00:15:32.474Z,0.00
2023-04-04T00:16:32.684Z,0.00
2023-04-04T00:17:32.799Z,0.00
2023-04-04T00:18:32.470Z,0.00
2023-04-04T00:19:32.441Z,0.00
2023-04-04T00:20:32.445Z,0.00
2023-04-04T00:21:32.434Z,0.00
2023-04-04T00:22:32.426Z,0.00
2023-04-04T00:23:32.433Z,0.00
2023-04-04T00:24:32.424Z,0.00
2023-04-04T00:25:32.431Z,0.00
2023-04-04T00:26:34.363Z,0.00
2023-04-04T00:27:32.449Z,0.00
2023-04-04T00:28:32.390Z,0.00
2023-04-04T00:29:32.405Z,0.00
2023-04-04T00:30:32.390Z,0.00
2023-04-04T00:31:32.459Z,0.00
2023-04-04T00:32:32.437Z,0.00
2023-04-04T00:33:32.549Z,0.00
2023-04-04T00:34:32.369Z,0.00
2023-04-04T00:35:32.380Z,0.00
2023-04-04T00:36:32.358Z,0.00
2023-04-04T00:37:32.365Z,0.00
2023-04-04T00:38:32.336Z,0.00
2023-04-04T00:39:32.339Z,0.00
2023-04-04T00:40:32.334Z,0.00
2023-04-04T00:41:32.365Z,0.00
2023-04-04T00:42:32.327Z,0.00
2023-04-04T00:43:32.332Z,0.00
2023-04-04T00:44:32.315Z,0.00
2023-04-04T00:45:32.339Z,0.00
2023-04-04T00:46:32.321Z,0.00
2023-04-04T00:47:32.382Z,0.00
2023-04-04T00:48:32.295Z,0.00
2023-04-04T00:49:32.291Z,0.00
2023-04-04T00:50:32.294Z,0.00
2023-04-04T00:51:32.263Z,0.00
2023-04-04T00:52:32.400Z,0.00
2023-04-04T00:53:32.253Z,0.00
2023-04-04T00:54:32.269Z,0.00
2023-04-04T00:55:32.246Z,0.00
2023-04-04T00:56:32.256Z,0.00
2023-04-04T00:57:32.238Z,0.00
2023-04-04T00:58:32.258Z,0.00
2023-04-04T00:59:32.407Z,0.00
2023-04-04T01:00:32.224Z,0.00
2023-04-04T01:01:32.295Z,0.00
2023-04-04T01:02:32.242Z,0.00
2023-04-04T01:03:32.225Z,0.00
2023-04-04T01:04:32.366Z,0.00
2023-04-04T01:05:32.207Z,0.00
2023-04-04T01:06:32.191Z,0.00
2023-04-04T01:07:32.633Z,0.00
2023-04-04T01:08:32.199Z,0.00
2023-04-04T01:09:32.282Z,0.00
2023-04-04T01:10:32.184Z,0.00
2023-04-04T01:11:32.184Z,0.00
2023-04-04T01:12:32.167Z,0.00
2023-04-04T01:13:32.160Z,0.00
2023-04-04T01:14:32.135Z,0.00
2023-04-04T01:15:32.156Z,0.00
2023-04-04T01:16:32.193Z,0.00
2023-04-04T01:17:32.138Z,0.00
2023-04-04T01:18:32.121Z,0.00
2023-04-04T01:19:32.145Z,0.00
2023-04-04T01:20:32.137Z,0.00
2023-04-04T01:21:32.110Z,0.00
2023-04-04T01:22:32.117Z,0.00
2023-04-04T01:23:32.114Z,0.00
2023-04-04T01:24:32.097Z,0.00
2023-04-04T01:25:32.169Z,0.00
2023-04-04T01:26:32.095Z,0.00
2023-04-04T01:27:32.139Z,0.00
2023-04-04T01:28:32.077Z,0.00
2023-04-04T01:29:32.073Z,0.00
2023-04-04T01:30:32.091Z,0.00
2023-04-04T01:31:32.081Z,0.00
2023-04-04T01:32:32.074Z,0.00
2023-04-04T01:33:32.056Z,0.00
2023-04-04T01:34:32.051Z,0.00
2023-04-04T01:35:32.045Z,0.00
2023-04-04T01:36:32.036Z,0.00
2023-04-04T01:37:32.027Z,0.00
2023-04-04T01:38:32.029Z,0.00
2023-04-04T01:39:32.015Z,0.00
2023-04-04T01:40:32.016Z,0.00
2023-04-04T01:41:32.008Z,0.00
2023-04-04T01:42:32.001Z,0.00
2023-04-04T01:43:31.988Z,0.00
2023-04-04T01:44:31.979Z,0.00
2023-04-04T01:45:31.980Z,0.00
2023-04-04T01:46:32.015Z,0.00
2023-04-04T01:47:32.156Z,0.00
2023-04-04T01:48:31.978Z,0.00
2023-04-04T01:49:31.969Z,0.00
2023-04-04T01:50:31.999Z,0.00
2023-04-04T01:51:31.963Z,0.00
2023-04-04T01:52:31.951Z,0.00
2023-04-04T01:53:32.001Z,0.00
2023-04-04T01:54:31.943Z,0.00
2023-04-04T01:55:31.922Z,0.00
2023-04-04T01:56:31.921Z,0.00
2023-04-04T01:57:31.910Z,0.00
2023-04-04T01:58:31.903Z,0.00
2023-04-04T01:59:31.954Z,0.00
2023-04-04T02:00:31.911Z,0.00
2023-04-04T02:01:31.941Z,0.00
2023-04-04T02:02:31.919Z,0.00
2023-04-04T02:03:31.891Z,0.00
2023-04-04T02:04:31.952Z,0.00
2023-04-04T02:05:31.889Z,0.00
2023-04-04T02:06:31.871Z,0.00
2023-04-04T02:07:31.862Z,0.00
2023-04-04T02:08:31.851Z,0.00
2023-04-04T02:09:31.840Z,0.00
2023-04-04T02:10:31.832Z,0.00
2023-04-04T02:11:31.837Z,0.00
2023-04-04T02:12:31.829Z,0.00
2023-04-04T02:13:31.828Z,0.00
2023-04-04T02:14:31.829Z,0.00
2023-04-04T02:15:31.817Z,0.00
2023-04-04T02:16:31.835Z,0.00
2023-04-04T02:17:31.823Z,0.00
2023-04-04T02:18:31.788Z,0.00
2023-04-04T02:19:31.813Z,0.00
2023-04-04T02:20:31.795Z,0.00
2023-04-04T02:21:31.806Z,0.00
2023-04-04T02:22:31.805Z,0.00
2023-04-04T02:23:31.779Z,0.00
2023-04-04T02:24:31.771Z,0.00
2023-04-04T02:25:31.768Z,0.00
2023-04-04T02:26:31.751Z,0.00
2023-04-04T02:27:31.763Z,0.00
2023-04-04T02:28:31.746Z,0.00
2023-04-04T02:29:31.763Z,0.00
2023-04-04T02:30:31.750Z,0.00
2023-04-04T02:31:31.789Z,0.00
2023-04-04T02:32:31.756Z,0.00
2023-04-04T02:33:31.721Z,0.00
2023-04-04T02:34:31.710Z,0.00
2023-04-04T02:35:31.732Z,0.00
2023-04-04T02:36:31.690Z,0.00
2023-04-04T02:37:31.689Z,0.00
2023-04-04T02:38:31.689Z,0.00
2023-04-04T02:39:31.702Z,0.00
2023-04-04T02:40:31.673Z,0.00
2023-04-04T02:41:31.676Z,0.00
2023-04-04T02:42:31.665Z,0.00
2023-04-04T02:43:31.673Z,0.00
2023-04-04T02:44:31.672Z,0.00
2023-04-04T02:45:31.649Z,0.00
2023-04-04T02:46:31.660Z,0.00
2023-04-04T02:47:31.696Z,0.00
2023-04-04T02:48:31.648Z,0.00
2023-04-04T02:49:31.630Z,0.00
2023-04-04T02:50:31.620Z,0.00
2023-04-04T02:51:31.651Z,0.00
2023-04-04T02:52:31.651Z,0.00
2023-04-04T02:53:31.621Z,0.00
2023-04-04T02:54:31.597Z,0.00
2023-04-04T02:55:31.595Z,0.00
2023-04-04T02:56:31.605Z,0.00
2023-04-04T02:57:31.581Z,0.00
2023-04-04T02:58:31.600Z,0.00
2023-04-04T02:59:31.641Z,0.00
2023-04-04T03:00:31.587Z,0.00
2023-04-04T03:01:31.788Z,0.00
2023-04-04T03:02:31.684Z,0.00
2023-04-04T03:03:31.692Z,0.00
2023-04-04T03:04:31.559Z,0.00
2023-04-04T03:05:31.543Z,0.00
2023-04-04T03:06:31.543Z,0.00
2023-04-04T03:07:31.563Z,0.00
2023-04-04T03:08:31.521Z,0.00
2023-04-04T03:09:31.526Z,0.00
2023-04-04T03:10:31.521Z,0.00
2023-04-04T03:11:31.517Z,0.00
2023-04-04T03:12:31.505Z,0.00
2023-04-04T03:13:31.495Z,0.00
2023-04-04T03:14:31.497Z,0.00
2023-04-04T03:15:31.497Z,0.00
2023-04-04T03:16:31.553Z,0.00
2023-04-04T03:17:31.533Z,0.00
2023-04-04T03:18:31.482Z,0.00
2023-04-04T03:19:31.475Z,0.00
2023-04-04T03:20:31.450Z,0.00
2023-04-04T03:21:31.453Z,0.00
2023-04-04T03:22:31.451Z,0.00
2023-04-04T03:23:31.458Z,0.00
2023-04-04T03:24:31.445Z,0.00
2023-04-04T03:25:31.481Z,0.00
2023-04-04T03:26:31.448Z,0.00
2023-04-04T03:27:31.421Z,0.00
2023-04-04T03:28:31.425Z,0.00
2023-04-04T03:29:31.414Z,0.00
2023-04-04T03:30:31.404Z,0.00
2023-04-04T03:31:31.431Z,0.00
2023-04-04T03:32:31.451Z,0.00
2023-04-04T03:33:31.402Z,0.00
2023-04-04T03:34:31.403Z,0.00
2023-04-04T03:35:31.394Z,0.00
2023-04-04T03:36:31.355Z,0.00
2023-04-04T03:37:31.360Z,0.00
2023-04-04T03:38:31.365Z,0.00
2023-04-04T03:39:31.382Z,0.00
2023-04-04T03:40:31.345Z,0.00
2023-04-04T03:41:31.354Z,0.00
2023-04-04T03:42:31.354Z,0.00
2023-04-04T03:43:31.355Z,0.00
2023-04-04T03:44:31.341Z,0.00
2023-04-04T03:45:31.317Z,0.00
2023-04-04T03:46:31.764Z,0.00
2023-04-04T03:47:31.357Z,0.00
2023-04-04T03:48:31.294Z,0.00
2023-04-04T03:49:31.317Z,0.00
2023-04-04T03:50:31.302Z,0.00
2023-04-04T03:51:31.286Z,0.00
2023-04-04T03:52:31.289Z,0.00
2023-04-04T03:53:31.275Z,0.00
2023-04-04T03:54:31.267Z,0.00
2023-04-04T03:55:31.288Z,0.00
2023-04-04T03:56:31.252Z,0.00
2023-04-04T03:57:31.265Z,0.00
2023-04-04T03:58:31.256Z,0.00
2023-04-04T03:59:31.300Z,0.00
2023-04-04T04:00:31.235Z,0.00
2023-04-04T04:01:31.240Z,0.00
2023-04-04T04:02:31.298Z,0.00
2023-04-04T04:03:31.372Z,0.00
2023-04-04T04:04:31.271Z,0.00
2023-04-04T04:05:31.205Z,0.00
2023-04-04T04:06:31.206Z,0.00
2023-04-04T04:07:31.185Z,0.00
2023-04-04T04:08:31.212Z,0.00
2023-04-04T04:09:31.182Z,0.00
2023-04-04T04:10:31.201Z,0.00
2023-04-04T04:11:31.209Z,0.00
2023-04-04T04:12:31.167Z,0.00
2023-04-04T04:13:31.166Z,0.00
2023-04-04T04:14:31.146Z,0.00
2023-04-04T04:15:31.159Z,0.00
2023-04-04T04:16:31.193Z,0.00
2023-04-04T04:17:31.169Z,0.00
2023-04-04T04:18:31.143Z,0.00
2023-04-04T04:19:31.205Z,0.00
2023-04-04T04:20:31.116Z,0.00
2023-04-04T04:21:31.124Z,0.00
2023-04-04T04:22:31.095Z,0.00
2023-04-04T04:23:31.112Z,0.00
2023-04-04T04:24:31.094Z,0.00
2023-04-04T04:25:31.097Z,0.00
2023-04-04T04:26:31.108Z,0.00
2023-04-04T04:27:31.092Z,0.00
2023-04-04T04:28:33.539Z,0.00
2023-04-04T04:29:31.368Z,0.00
2023-04-04T04:30:31.064Z,0.00
2023-04-04T04:31:31.057Z,0.00
2023-04-04T04:32:31.153Z,0.00
2023-04-04T04:33:31.051Z,0.00
2023-04-04T04:34:31.041Z,0.00
2023-04-04T04:35:31.046Z,0.00
2023-04-04T04:36:31.064Z,0.00
2023-04-04T04:37:31.033Z,0.00
2023-04-04T04:38:31.041Z,0.00
2023-04-04T04:39:31.022Z,0.00
2023-04-04T04:40:31.023Z,0.00
2023-04-04T04:41:31.002Z,0.00
2023-04-04T04:42:30.989Z,0.00
2023-04-04T04:43:31.011Z,0.00
2023-04-04T04:44:30.990Z,0.00
2023-04-04T04:45:30.986Z,0.00
2023-04-04T04:46:31.031Z,0.00
2023-04-04T04:47:31.012Z,4.00
2023-04-04T04:48:30.972Z,4.00
2023-04-04T04:49:30.961Z,0.00
2023-04-04T04:50:30.950Z,0.00
2023-04-04T04:51:30.982Z,4.00
2023-04-04T04:52:30.947Z,4.00
2023-04-04T04:53:30.925Z,0.00
2023-04-04T04:54:30.942Z,4.00
2023-04-04T04:55:30.952Z,4.00
2023-04-04T04:56:30.940Z,4.00
2023-04-04T04:57:30.910Z,8.00
2023-04-04T04:58:30.916Z,4.00
2023-04-04T04:59:31.081Z,4.00
2023-04-04T05:00:30.918Z,8.00
2023-04-04T05:01:30.990Z,8.00
2023-04-04T05:02:30.995Z,8.00
2023-04-04T05:03:30.897Z,8.00
2023-04-04T05:04:30.888Z,12.00
2023-04-04T05:05:30.873Z,8.00
2023-04-04T05:06:30.875Z,12.00
2023-04-04T05:07:30.851Z,12.00
2023-04-04T05:08:30.874Z,12.00
2023-04-04T05:09:30.859Z,16.00
2023-04-04T05:10:30.858Z,16.00
2023-04-04T05:11:30.846Z,16.00
2023-04-04T05:12:30.842Z,16.00
2023-04-04T05:13:30.855Z,20.00
2023-04-04T05:14:30.823Z,20.00
2023-04-04T05:15:30.831Z,20.00
2023-04-04T05:16:30.816Z,20.00
2023-04-04T05:17:30.826Z,24.00
2023-04-04T05:18:30.807Z,24.00
2023-04-04T05:19:30.864Z,24.00
2023-04-04T05:20:30.803Z,28.00
2023-04-04T05:21:30.788Z,28.00
2023-04-04T05:22:30.792Z,28.00
2023-04-04T05:23:30.784Z,32.00
2023-04-04T05:24:30.767Z,32.00
2023-04-04T05:25:30.777Z,36.00
2023-04-04T05:26:30.763Z,36.00
2023-04-04T05:27:30.767Z,40.00
2023-04-04T05:28:30.759Z,40.00
2023-04-04T05:29:30.761Z,40.00
2023-04-04T05:30:30.753Z,48.00
2023-04-04T05:31:30.771Z,48.00
2023-04-04T05:32:30.915Z,52.00
2023-04-04T05:33:30.735Z,52.00
2023-04-04T05:34:30.737Z,52.00
2023-04-04T05:35:30.790Z,56.00
2023-04-04T05:36:30.760Z,56.00
2023-04-04T05:37:30.984Z,56.00
2023-04-04T05:38:30.722Z,60.00
2023-04-04T05:39:30.720Z,60.00
2023-04-04T05:40:30.711Z,64.00
2023-04-04T05:41:30.714Z,64.00
2023-04-04T05:42:30.705Z,64.00
2023-04-04T05:43:30.693Z,68.00
2023-04-04T05:44:30.690Z,68.00
2023-04-04T05:45:30.694Z,68.00
2023-04-04T05:46:30.775Z,68.00
2023-04-04T05:47:30.718Z,76.00
2023-04-04T05:48:30.665Z,76.00
2023-04-04T05:49:30.660Z,80.00
2023-04-04T05:50:30.674Z,88.00
2023-04-04T05:51:30.671Z,88.00
2023-04-04T05:52:30.652Z,96.00
2023-04-04T05:53:30.640Z,96.00
2023-04-04T05:54:30.639Z,100.00
2023-04-04T05:55:30.630Z,100.00
2023-04-04T05:56:30.625Z,100.00
2023-04-04T05:57:30.623Z,100.00
2023-04-04T05:58:30.634Z,104.00
2023-04-04T05:59:30.739Z,100.00
2023-04-04T06:00:30.604Z,104.00
2023-04-04T06:01:30.618Z,104.00
2023-04-04T06:02:30.656Z,104.00
2023-04-04T06:03:30.727Z,100.00
2023-04-04T06:04:30.611Z,104.00
2023-04-04T06:05:30.626Z,108.00
2023-04-04T06:06:30.575Z,108.00
2023-04-04T06:07:30.577Z,112.00
2023-04-04T06:08:32.033Z,112.00
2023-04-04T06:09:30.577Z,112.00
2023-04-04T06:10:30.562Z,116.00
2023-04-04T06:11:30.555Z,116.00
2023-04-04T06:12:30.556Z,116.00
2023-04-04T06:13:30.563Z,108.00
2023-04-04T06:14:30.559Z,104.00
2023-04-04T06:15:30.535Z,104.00
2023-04-04T06:16:30.593Z,100.00
2023-04-04T06:17:30.539Z,104.00
2023-04-04T06:18:30.547Z,104.00
2023-04-04T06:19:30.542Z,100.00
2023-04-04T06:20:30.543Z,104.00
2023-04-04T06:21:30.521Z,104.00
2023-04-04T06:22:30.519Z,108.00
2023-04-04T06:23:30.498Z,116.00
2023-04-04T06:24:30.508Z,108.00
2023-04-04T06:25:30.482Z,108.00
2023-04-04T06:26:30.475Z,108.00
2023-04-04T06:27:30.480Z,112.00
2023-04-04T06:28:30.483Z,116.00
2023-04-04T06:29:30.467Z,112.00
2023-04-04T06:30:30.480Z,116.00
2023-04-04T06:31:30.473Z,120.00
2023-04-04T06:32:30.508Z,120.00
2023-04-04T06:33:30.453Z,120.00
2023-04-04T06:34:30.441Z,120.00
2023-04-04T06:35:30.483Z,128.00
2023-04-04T06:36:30.471Z,128.00
2023-04-04T06:37:30.460Z,140.00
2023-04-04T06:38:30.441Z,156.00
2023-04-04T06:39:30.419Z,160.00
2023-04-04T06:40:30.418Z,164.00
2023-04-04T06:41:30.417Z,168.00
2023-04-04T06:42:30.392Z,168.00
2023-04-04T06:43:30.990Z,172.00
2023-04-04T06:44:30.405Z,176.00
2023-04-04T06:45:30.400Z,172.00
2023-04-04T06:46:30.434Z,172.00
2023-04-04T06:47:30.423Z,164.00
2023-04-04T06:48:30.377Z,168.00
2023-04-04T06:49:30.375Z,164.00
2023-04-04T06:50:30.364Z,160.00
2023-04-04T06:51:30.376Z,160.00
2023-04-04T06:52:30.346Z,180.00
2023-04-04T06:53:30.357Z,184.00
2023-04-04T06:54:30.349Z,184.00
2023-04-04T06:55:30.334Z,188.00
2023-04-04T06:56:30.339Z,184.00
2023-04-04T06:57:30.337Z,172.00
2023-04-04T06:58:30.324Z,168.00
2023-04-04T06:59:30.453Z,168.00
2023-04-04T07:00:30.312Z,164.00
2023-04-04T07:01:30.400Z,164.00
2023-04-04T07:02:31.621Z,156.00
2023-04-04T07:03:30.384Z,144.00
2023-04-04T07:04:30.335Z,128.00
2023-04-04T07:05:30.274Z,132.00
2023-04-04T07:06:30.295Z,140.00
2023-04-04T07:07:30.307Z,132.00
2023-04-04T07:08:34.420Z,132.00
2023-04-04T07:09:30.303Z,136.00
2023-04-04T07:10:30.257Z,132.00
2023-04-04T07:11:30.269Z,140.00
2023-04-04T07:12:30.259Z,144.00
2023-04-04T07:13:30.261Z,144.00
2023-04-04T07:14:30.253Z,136.00
2023-04-04T07:15:30.239Z,148.00
2023-04-04T07:16:30.312Z,152.00
2023-04-04T07:17:30.273Z,156.00
2023-04-04T07:18:30.224Z,152.00
2023-04-04T07:19:30.223Z,156.00
2023-04-04T07:20:30.221Z,164.00
2023-04-04T07:21:30.204Z,160.00
2023-04-04T07:22:30.198Z,156.00
2023-04-04T07:23:30.216Z,156.00
2023-04-04T07:24:30.200Z,156.00
2023-04-04T07:25:30.185Z,160.00
2023-04-04T07:26:30.187Z,164.00
2023-04-04T07:27:30.170Z,156.00
2023-04-04T07:28:30.190Z,156.00
2023-04-04T07:29:30.164Z,156.00
2023-04-04T07:30:30.162Z,164.00
2023-04-04T07:31:30.222Z,164.00
2023-04-04T07:32:30.190Z,168.00
2023-04-04T07:33:30.142Z,168.00
2023-04-04T07:34:30.148Z,168.00
2023-04-04T07:35:30.161Z,168.00
2023-04-04T07:36:30.148Z,168.00
2023-04-04T07:37:30.122Z,172.00
2023-04-04T07:38:30.128Z,172.00
2023-04-04T07:39:30.127Z,172.00
2023-04-04T07:40:30.115Z,168.00
2023-04-04T07:41:30.085Z,168.00
2023-04-04T07:42:30.121Z,168.00
2023-04-04T07:43:30.113Z,168.00
2023-04-04T07:44:30.091Z,164.00
2023-04-04T07:45:30.095Z,172.00
2023-04-04T07:46:30.165Z,172.00
2023-04-04T07:47:30.084Z,180.00
2023-04-04T07:48:30.054Z,172.00
2023-04-04T07:49:30.043Z,172.00
2023-04-04T07:50:30.040Z,172.00
2023-04-04T07:51:30.045Z,172.00
2023-04-04T07:52:30.046Z,176.00
2023-04-04T07:53:30.049Z,184.00
2023-04-04T07:54:30.030Z,184.00
2023-04-04T07:55:30.043Z,184.00
2023-04-04T07:56:30.009Z,180.00
2023-04-04T07:57:30.012Z,180.00
2023-04-04T07:58:29.999Z,180.00
2023-04-04T07:59:30.048Z,180.00
2023-04-04T08:00:30.012Z,180.00
2023-04-04T08:01:29.984Z,176.00
2023-04-04T08:02:30.081Z,180.00
2023-04-04T08:03:30.173Z,180.00
2023-04-04T08:04:30.064Z,176.00
2023-04-04T08:05:29.977Z,176.00
2023-04-04T08:06:29.987Z,176.00
2023-04-04T08:07:30.392Z,180.00
2023-04-04T08:08:29.958Z,180.00
2023-04-04T08:09:29.957Z,176.00
2023-04-04T08:10:29.978Z,180.00
2023-04-04T08:11:29.957Z,176.00
2023-04-04T08:12:29.923Z,176.00
2023-04-04T08:13:29.924Z,180.00
2023-04-04T08:14:29.925Z,180.00
2023-04-04T08:15:29.901Z,180.00
2023-04-04T08:16:29.960Z,180.00
2023-04-04T08:17:29.930Z,180.00
2023-04-04T08:18:29.911Z,180.00
2023-04-04T08:19:29.900Z,184.00
2023-04-04T08:20:29.903Z,184.00
2023-04-04T08:21:29.876Z,180.00
2023-04-04T08:22:29.888Z,180.00
2023-04-04T08:23:29.889Z,180.00
2023-04-04T08:24:29.860Z,180.00
2023-04-04T08:25:29.892Z,180.00
2023-04-04T08:26:29.854Z,184.00
2023-04-04T08:27:29.881Z,188.00
2023-04-04T08:28:29.876Z,180.00
2023-04-04T08:29:29.823Z,184.00
2023-04-04T08:30:29.832Z,184.00
2023-04-04T08:31:29.934Z,184.00
2023-04-04T08:32:29.846Z,184.00
2023-04-04T08:33:44.342Z,184.00
2023-04-04T08:34:29.851Z,184.00
2023-04-04T08:35:29.903Z,184.00
2023-04-04T08:36:29.835Z,180.00
2023-04-04T08:37:29.781Z,184.00
2023-04-04T08:38:29.788Z,184.00
2023-04-04T08:39:29.782Z,176.00
2023-04-04T08:40:29.797Z,180.00
2023-04-04T08:41:29.772Z,184.00
2023-04-04T08:42:29.767Z,184.00
2023-04-04T08:43:29.795Z,180.00
2023-04-04T08:44:29.778Z,184.00
2023-04-04T08:45:29.750Z,180.00
2023-04-04T08:46:29.830Z,180.00
2023-04-04T08:47:29.771Z,184.00
2023-04-04T08:48:29.760Z,180.00
2023-04-04T08:49:29.735Z,180.00
2023-04-04T08:50:29.730Z,180.00
2023-04-04T08:51:29.987Z,180.00
2023-04-04T08:52:29.737Z,176.00
2023-04-04T08:53:29.724Z,180.00
2023-04-04T08:54:29.720Z,176.00
2023-04-04T08:55:29.708Z,180.00
2023-04-04T08:56:29.727Z,180.00
2023-04-04T08:57:29.714Z,180.00
2023-04-04T08:58:29.688Z,180.00
2023-04-04T08:59:29.903Z,180.00
2023-04-04T09:00:29.720Z,180.00
2023-04-04T09:01:29.834Z,180.00
2023-04-04T09:02:29.781Z,176.00
2023-04-04T09:03:29.791Z,176.00
2023-04-04T09:04:29.679Z,176.00
2023-04-04T09:05:29.658Z,176.00
2023-04-04T09:06:29.647Z,176.00
2023-04-04T09:07:29.668Z,172.00
2023-04-04T09:08:29.645Z,176.00
2023-04-04T09:09:29.687Z,176.00
2023-04-04T09:10:29.642Z,176.00
2023-04-04T09:11:29.626Z,176.00
2023-04-04T09:12:29.629Z,180.00
2023-04-04T09:13:29.630Z,180.00
2023-04-04T09:14:29.633Z,180.00
2023-04-04T09:15:29.824Z,180.00
2023-04-04T09:16:29.612Z,180.00
2023-04-04T09:17:29.613Z,180.00
2023-04-04T09:18:29.585Z,180.00
2023-04-04T09:19:29.594Z,180.00
2023-04-04T09:20:29.597Z,176.00
2023-04-04T09:21:29.581Z,172.00
2023-04-04T09:22:29.580Z,176.00
2023-04-04T09:23:29.576Z,176.00
2023-04-04T09:24:31.135Z,176.00
2023-04-04T09:25:29.551Z,172.00
2023-04-04T09:26:29.541Z,172.00
2023-04-04T09:27:29.551Z,172.00
2023-04-04T09:28:29.548Z,180.00
2023-04-04T09:29:29.545Z,172.00
2023-04-04T09:30:29.529Z,176.00
2023-04-04T09:31:29.569Z,172.00
2023-04-04T09:32:29.567Z,172.00
2023-04-04T09:33:29.514Z,172.00
2023-04-04T09:34:29.497Z,172.00
2023-04-04T09:35:29.512Z,168.00
2023-04-04T09:36:29.528Z,168.00
2023-04-04T09:37:29.505Z,168.00
2023-04-04T09:38:29.530Z,168.00
2023-04-04T09:39:29.499Z,168.00
2023-04-04T09:40:29.476Z,168.00
2023-04-04T09:41:29.473Z,168.00
2023-04-04T09:42:29.465Z,168.00
2023-04-04T09:43:29.465Z,168.00
2023-04-04T09:44:29.468Z,172.00
2023-04-04T09:45:32.458Z,168.00
2023-04-04T09:46:29.513Z,168.00
2023-04-04T09:47:31.091Z,164.00
2023-04-04T09:48:29.436Z,164.00
2023-04-04T09:49:29.436Z,168.00
2023-04-04T09:50:29.436Z,168.00
2023-04-04T09:51:29.412Z,164.00
2023-04-04T09:52:29.416Z,164.00
2023-04-04T09:53:29.397Z,164.00
2023-04-04T09:54:30.836Z,164.00
2023-04-04T09:55:29.417Z,164.00
2023-04-04T09:56:29.590Z,160.00
2023-04-04T09:57:29.409Z,164.00
2023-04-04T09:58:29.371Z,160.00
2023-04-04T09:59:29.409Z,164.00
2023-04-04T10:00:29.384Z,164.00
2023-04-04T10:01:29.421Z,164.00
2023-04-04T10:02:29.392Z,156.00
2023-04-04T10:03:29.478Z,156.00
2023-04-04T10:04:29.390Z,164.00
2023-04-04T10:05:29.358Z,160.00
2023-04-04T10:06:29.345Z,156.00
2023-04-04T10:07:29.330Z,156.00
2023-04-04T10:08:29.377Z,156.00
2023-04-04T10:09:29.345Z,156.00
2023-04-04T10:10:29.316Z,156.00
2023-04-04T10:11:29.324Z,160.00
2023-04-04T10:12:29.308Z,160.00
2023-04-04T10:13:29.319Z,160.00
2023-04-04T10:14:29.310Z,160.00
2023-04-04T10:15:29.313Z,160.00
2023-04-04T10:16:29.295Z,160.00
2023-04-04T10:17:29.307Z,156.00
2023-04-04T10:18:29.273Z,152.00
2023-04-04T10:19:29.290Z,152.00
2023-04-04T10:20:29.255Z,156.00
2023-04-04T10:21:29.278Z,156.00
2023-04-04T10:22:29.243Z,156.00
2023-04-04T10:23:29.245Z,160.00
2023-04-04T10:24:29.271Z,156.00
2023-04-04T10:25:29.247Z,156.00
2023-04-04T10:26:29.225Z,156.00
2023-04-04T10:27:29.255Z,156.00
2023-04-04T10:28:29.218Z,156.00
2023-04-04T10:29:29.213Z,156.00
2023-04-04T10:30:29.216Z,156.00
2023-04-04T10:31:29.261Z,152.00
2023-04-04T10:32:29.215Z,152.00
2023-04-04T10:33:29.203Z,152.00
2023-04-04T10:34:29.199Z,152.00
2023-04-04T10:35:29.223Z,148.00
2023-04-04T10:36:29.171Z,152.00
2023-04-04T10:37:29.173Z,152.00
2023-04-04T10:38:29.173Z,152.00
2023-04-04T10:39:29.174Z,148.00
2023-04-04T10:40:29.151Z,152.00
2023-04-04T10:41:29.166Z,148.00
2023-04-04T10:42:29.149Z,152.00
2023-04-04T10:43:29.146Z,152.00
2023-04-04T10:44:29.167Z,152.00
2023-04-04T10:45:29.124Z,152.00
2023-04-04T10:46:29.154Z,152.00
2023-04-04T10:47:29.145Z,148.00
2023-04-04T10:48:29.130Z,148.00
2023-04-04T10:49:29.102Z,144.00
2023-04-04T10:50:29.099Z,148.00
2023-04-04T10:51:29.130Z,148.00
2023-04-04T10:52:29.094Z,148.00
2023-04-04T10:53:29.087Z,148.00
2023-04-04T10:54:29.152Z,152.00
2023-04-04T10:55:29.087Z,152.00
2023-04-04T10:56:29.123Z,144.00
2023-04-04T10:57:29.081Z,148.00
2023-04-04T10:58:29.069Z,148.00
2023-04-04T10:59:29.120Z,148.00
2023-04-04T11:00:29.050Z,148.00
2023-04-04T11:01:29.050Z,148.00
2023-04-04T11:02:29.062Z,148.00
2023-04-04T11:03:29.047Z,144.00
2023-04-04T11:04:29.102Z,144.00
2023-04-04T11:05:29.043Z,144.00
2023-04-04T11:06:29.038Z,144.00
2023-04-04T11:07:29.029Z,148.00
2023-04-04T11:08:29.007Z,144.00
2023-04-04T11:09:29.014Z,140.00
2023-04-04T11:10:29.004Z,144.00
2023-04-04T11:11:29.004Z,144.00
2023-04-04T11:12:28.985Z,148.00
2023-04-04T11:13:28.982Z,148.00
2023-04-04T11:14:28.972Z,144.00
2023-04-04T11:15:28.983Z,144.00
2023-04-04T11:16:28.975Z,144.00
2023-04-04T11:17:28.989Z,144.00
2023-04-04T11:18:33.345Z,140.00
2023-04-04T11:19:28.967Z,140.00
2023-04-04T11:20:28.962Z,140.00
2023-04-04T11:21:28.945Z,140.00
2023-04-04T11:22:28.943Z,140.00
2023-04-04T11:23:28.967Z,140.00
2023-04-04T11:24:28.926Z,140.00
2023-04-04T11:25:28.917Z,140.00
2023-04-04T11:26:28.931Z,140.00
2023-04-04T11:27:28.982Z,140.00
2023-04-04T11:28:28.924Z,140.00
2023-04-04T11:29:28.904Z,140.00
2023-04-04T11:30:28.899Z,140.00
2023-04-04T11:31:28.980Z,140.00
2023-04-04T11:32:28.889Z,140.00
2023-04-04T11:33:28.938Z,140.00
2023-04-04T11:34:28.885Z,140.00
2023-04-04T11:35:28.869Z,136.00
2023-04-04T11:36:28.891Z,136.00
2023-04-04T11:37:28.868Z,136.00
2023-04-04T11:38:28.856Z,136.00
2023-04-04T11:39:28.915Z,136.00
2023-04-04T11:40:28.841Z,136.00
2023-04-04T11:41:28.837Z,136.00
2023-04-04T11:42:28.844Z,136.00
2023-04-04T11:43:28.822Z,136.00
2023-04-04T11:44:28.829Z,136.00
2023-04-04T11:45:28.810Z,136.00
2023-04-04T11:46:28.847Z,136.00
2023-04-04T11:47:28.813Z,136.00
2023-04-04T11:48:28.792Z,136.00
2023-04-04T11:49:28.808Z,132.00
2023-04-04T11:50:28.799Z,132.00
2023-04-04T11:51:28.776Z,132.00
2023-04-04T11:52:28.771Z,132.00
2023-04-04T11:53:28.759Z,132.00
2023-04-04T11:54:28.772Z,132.00
2023-04-04T11:55:28.769Z,132.00
2023-04-04T11:56:28.763Z,132.00
2023-04-04T11:57:28.744Z,132.00
2023-04-04T11:58:28.754Z,132.00
2023-04-04T11:59:28.783Z,128.00
2023-04-04T12:00:28.735Z,132.00
2023-04-04T12:01:28.734Z,128.00
2023-04-04T12:02:28.809Z,132.00
2023-04-04T12:03:28.884Z,132.00
2023-04-04T12:04:28.713Z,132.00
2023-04-04T12:05:28.898Z,128.00
2023-04-04T12:06:28.698Z,132.00
2023-04-04T12:07:28.710Z,132.00
2023-04-04T12:08:28.697Z,132.00
2023-04-04T12:09:28.699Z,132.00
2023-04-04T12:10:28.672Z,132.00
2023-04-04T12:11:28.695Z,132.00
2023-04-04T12:12:28.669Z,132.00
2023-04-04T12:13:28.688Z,132.00
2023-04-04T12:14:28.662Z,132.00
2023-04-04T12:15:28.662Z,132.00
2023-04-04T12:16:28.698Z,132.00
2023-04-04T12:17:28.656Z,132.00
2023-04-04T12:18:28.639Z,132.00
2023-04-04T12:19:28.648Z,132.00
2023-04-04T12:20:28.631Z,132.00
2023-04-04T12:21:28.624Z,132.00
2023-04-04T12:22:29.912Z,132.00
2023-04-04T12:23:28.606Z,132.00
2023-04-04T12:24:28.603Z,132.00
2023-04-04T12:25:28.622Z,132.00
2023-04-04T12:26:28.608Z,132.00
2023-04-04T12:27:28.636Z,132.00
2023-04-04T12:28:28.576Z,132.00
2023-04-04T12:29:28.589Z,128.00
2023-04-04T12:30:28.574Z,132.00
2023-04-04T12:31:28.627Z,128.00
2023-04-04T12:32:28.577Z,128.00
2023-04-04T12:33:28.574Z,128.00
2023-04-04T12:35:28.547Z,132.00
2023-04-04T12:36:28.554Z,124.00
2023-04-04T12:37:28.543Z,136.00
2023-04-04T12:38:28.552Z,136.00
2023-04-04T12:39:28.548Z,136.00
2023-04-04T12:40:28.537Z,140.00
2023-04-04T12:41:28.535Z,140.00
2023-04-04T12:42:28.502Z,140.00
2023-04-04T12:43:28.520Z,140.00
2023-04-04T12:44:28.512Z,136.00
2023-04-04T12:45:28.492Z,136.00
2023-04-04T12:46:28.510Z,136.00
2023-04-04T12:47:28.504Z,136.00
2023-04-04T12:48:28.470Z,132.00
2023-04-04T12:49:28.480Z,132.00
2023-04-04T12:50:28.508Z,132.00